Data for 08/04/2009

Time Sea-Level Adjusted Pressure Absolute Pressure Temperature Relative Humidity Dew Point   
(mb) (inHg) (mb) (inHg) (C) (F) (%) (C) (F)
00:05 1019 30.09 848 25.04 20.4 68.8 52 10.3 50.5
00:10 1019 30.09 848 25.04 20.3 68.5 53 10.4 50.8
00:15 1019 30.09 848 25.04 20.1 68.2 53 10.3 50.5
00:20 1019 30.09 848 25.04 20.1 68.1 53 10.3 50.6
00:25 1019 30.09 848 25.04 20 68 53 10.3 50.6
00:30 1019 30.09 848 25.04 20 68 53 10.3 50.6
00:35 1019 30.09 848 25.04 19.9 67.9 54 10.4 50.7
00:40 1019 30.09 848 25.04 19.8 67.7 54 10.4 50.7
00:45 1019 30.09 848 25.04 19.7 67.4 55 10.4 50.7
00:50 1019 30.09 848 25.04 19.6 67.3 54 10.3 50.5
00:55 1019 30.09 848 25.04 19.6 67.2 55 10.3 50.6
01:00 1019 30.09 848 25.04 19.6 67.2 55 10.3 50.6
01:05 1019 30.09 848 25.04 19.6 67.2 55 10.3 50.6
01:10 1019 30.09 848 25.04 19.6 67.3 55 10.4 50.7
01:15 1019 30.09 848 25.04 19.6 67.3 54 10.3 50.6
01:20 1019 30.09 848 25.04 19.5 67.1 56 10.5 50.9
01:25 1019 30.09 848 25.04 19.4 67 56 10.4 50.8
01:30 1019 30.09 848 25.04 19.4 66.8 56 10.5 50.8
01:35 1019 30.09 848 25.04 19.2 66.6 57 10.5 50.9
01:40 1019 30.09 848 25.04 19.1 66.3 57 10.5 51
01:45 1019 30.09 848 25.04 19 66.1 58 10.5 50.9
01:50 1019 30.09 848 25.04 18.8 65.8 59 10.7 51.3
01:55 1019 30.09 848 25.04 18.6 65.5 60 10.7 51.3
02:00 1019 30.09 848 25.04 18.4 65.2 60 10.7 51.3
02:05 1019 30.09 848 25.04 18.2 64.8 61 10.7 51.3
02:10 1019 30.09 848 25.04 18 64.4 64 11.2 52.1
02:15 1019 30.09 848 25.04 17.7 63.9 63 10.8 51.4
02:20 1019 30.09 848 25.04 17.8 64 62 10.5 50.9
02:25 1019 30.09 848 25.04 17.9 64.1 62 10.6 51
02:30 1019 30.09 848 25.04 18 64.3 61 10.5 50.8
02:35 1019 30.09 848 25.04 18.1 64.5 61 10.5 50.8
02:40 1019 30.09 848 25.04 18 64.4 61 10.5 51
02:45 1019 30.09 848 25.04 17.8 64 62 10.4 50.8
02:50 1019 30.09 848 25.04 17.8 64 61 10.4 50.7
02:55 1019 30.09 848 25.04 17.8 64 62 10.4 50.7
03:00 1019 30.09 848 25.04 17.7 63.9 62 10.4 50.7
03:05 1019 30.09 848 25.04 17.7 63.9 61 10.2 50.4
03:10 1019 30.09 848 25.04 17.8 64.1 61 10.2 50.4
03:15 1019 30.09 848 25.04 17.7 63.9 62 10.4 50.6
03:20 1019 30.09 848 25.04 17.4 63.3 64 10.6 51.1
03:25 1019 30.09 848 25.04 17 62.7 64 10.2 50.3
03:30 1019 30.09 848 25.04 16.9 62.5 67 10.8 51.4
03:35 1019 30.09 848 25.04 16.8 62.2 64 10.1 50.2
03:40 1019 30.09 848 25.04 16.7 62.1 64 9.9 49.9
03:45 1019 30.09 848 25.04 16.5 61.7 63 9.6 49.2
03:50 1019 30.09 848 25.04 16.4 61.4 61 9 48.2
03:55 1019 30.09 848 25.04 16.1 61 62 8.8 47.9
04:00 1019 30.09 848 25.04 15.8 60.4 61 8.4 47
04:05 1019 30.09 848 25.04 15.8 60.4 60 8.1 46.5
04:10 1019 30.09 848 25.04 16 60.8 61 8.5 47.3
04:15 1019 30.09 848 25.04 16.3 61.3 61 8.8 47.9
04:20 1019 30.09 848 25.04 16.3 61.3 62 9.1 48.4
04:25 1019 30.09 848 25.04 16 60.7 64 9.2 48.6
04:30 1019 30.09 848 25.04 15.6 60.2 65 9.1 48.3
04:35 1019 30.09 848 25.04 15.6 60 64 8.8 47.9
04:40 1019 30.09 848 25.04 15.8 60.4 65 9.3 48.8
04:45 1019 30.09 848 25.04 16 60.8 63 9.2 48.5
04:50 1019 30.09 848 25.04 16.3 61.3 64 9.4 49
04:55 1019 30.09 848 25.04 16.1 61 63 9.2 48.6
05:00 1019 30.09 848 25.04 16.2 61.1 64 9.3 48.8
05:05 1019 30.09 848 25.04 16 60.9 65 9.5 49
05:10 1019 30.09 848 25.04 15.9 60.6 65 9.3 48.8
05:15 1019 30.09 848 25.04 16 60.8 64 9.2 48.5
05:20 1019 30.09 848 25.04 16 60.9 64 9.3 48.7
05:25 1019 30.09 848 25.04 15.9 60.7 64 9.3 48.7
05:30 1019 30.09 848 25.04 15.8 60.5 65 9.2 48.6
05:35 1019 30.09 848 25.04 15.8 60.4 66 9.5 49.2
05:40 1019 30.09 848 25.04 15.8 60.4 65 9.3 48.7
05:45 1019 30.09 849 25.07 15.8 60.4 62 8.6 47.5
05:50 1019 30.09 848 25.04 15.9 60.6 60 8.2 46.7
05:55 1019 30.09 848 25.04 16 60.7 59 8.1 46.7
06:00 1019 30.09 849 25.07 15.9 60.6 60 8.3 47
06:05 1019 30.09 849 25.07 15.9 60.6 58 7.8 46.1
06:10 1019 30.09 849 25.07 15.9 60.6 60 8.2 46.8
06:15 1019 30.09 849 25.07 15.9 60.6 61 8.5 47.3
06:20 1019 30.09 849 25.07 15.8 60.4 59 7.8 46.1
06:25 1019 30.09 849 25.07 15.6 60.1 61 8.1 46.6
06:30 1019 30.09 849 25.07 15.4 59.8 59 7.6 45.7
06:35 1019 30.09 849 25.07 15.4 59.7 60 7.8 46
06:40 1019 30.09 849 25.07 15.4 59.7 59 7.5 45.4
06:45 1019 30.09 848 25.04 15.5 59.9 58 7.4 45.3
06:50 1019 30.09 848 25.04 15.6 60 59 7.6 45.7
06:55 1019 30.09 849 25.07 15.7 60.3 61 8.2 46.7
07:00 1019 30.09 849 25.07 15.3 59.5 59 7.4 45.3
07:05 1019 30.09 849 25.07 15.4 59.7 56 6.8 44.2
07:10 1019 30.09 849 25.07 16 60.9 54 6.8 44.2
07:15 1019 30.09 849 25.07 16.4 61.6 54 7.1 44.7
07:20 1019 30.09 849 25.07 16.7 62.1 53 7.1 44.8
07:25 1019 30.09 849 25.07 17 62.6 51 7 44.6
07:30 1019 30.09 849 25.07 17.3 63.2 52 7.5 45.4
07:35 1019 30.09 849 25.07 17.2 62.9 54 7.8 46.1
07:40 1019 30.09 849 25.07 17 62.7 55 7.9 46.3
07:45 1020 30.12 849 25.07 17.2 62.9 54 8 46.4
07:50 1019 30.09 849 25.07 17.4 63.4 53 7.7 45.9
07:55 1020 30.12 849 25.07 17.8 64 51 7.7 45.8
08:00 1020 30.12 849 25.07 18.2 64.7 51 7.9 46.2
08:05 1020 30.12 849 25.07 18.3 64.9 49 7.6 45.7
08:10 1020 30.12 849 25.07 18.1 64.7 51 8.1 46.5
08:15 1019 30.09 849 25.07 18.3 64.9 51 8 46.5
08:20 1020 30.12 849 25.07 18.4 65.1 51 8.3 46.9
08:25 1019 30.09 849 25.07 18.7 65.7 50 8.3 47
08:30 1020 30.12 849 25.07 18.9 65.9 47 7.6 45.6
08:35 1020 30.12 849 25.07 19.3 66.7 49 8.4 47
08:40 1020 30.12 849 25.07 19.6 67.3 48 8.6 47.4
08:45 1020 30.12 849 25.07 19.5 67 49 8.6 47.5
08:50 1020 30.12 849 25.07 20.3 68.6 47 8.7 47.6
08:55 1020 30.12 849 25.07 20.7 69.3 44 8.3 46.9
09:00 1020 30.12 849 25.07 21.8 71.2 42 8.4 47.1
09:05 1020 30.12 849 25.07 22 71.7 40 7.9 46.2
09:10 1020 30.12 849 25.07 22.7 72.9 39 8.4 47.1
09:15 1020 30.12 849 25.07 22.8 73 40 8.8 47.8
09:20 1020 30.12 849 25.07 22.8 73 38 8.1 46.5
09:25 1020 30.12 849 25.07 23.3 73.9 38 8.4 47.1
09:30 1020 30.12 849 25.07 24 75.2 36 8.3 47
09:35 1020 30.12 849 25.07 23.3 73.9 39 8.6 47.5
09:40 1020 30.12 849 25.07 22.9 73.1 39 8.3 47
09:45 1020 30.12 849 25.07 23.8 74.8 36 8.1 46.5
09:50 1020 30.12 849 25.07 24.4 75.8 35 8 46.4
09:55 1020 30.12 849 25.07 24.7 76.4 36 8.7 47.6
10:00 1020 30.12 849 25.07 24.1 75.5 35 8.1 46.5
10:05 1020 30.12 849 25.07 24.5 76.2 33 7.4 45.4
10:10 1020 30.12 849 25.07 25.2 77.4 32 7.4 45.3
10:15 1020 30.12 849 25.07 25 77 33 7.8 46
10:20 1020 30.12 849 25.07 25.8 78.5 31 7.6 45.7
10:25 1020 30.12 849 25.07 25.4 77.7 33 8.3 46.9
10:30 1020 30.12 849 25.07 24.1 75.4 35 7.9 46.2
10:35 1020 30.12 849 25.07 24 75.1 35 7.6 45.7
10:40 1020 30.12 850 25.1 24.1 75.3 38 8.9 48
10:45 1020 30.12 850 25.1 23.7 74.6 38 8.6 47.4
10:50 1020 30.12 850 25.1 23.6 74.5 37 8.4 47.2
10:55 1020 30.12 850 25.1 23.9 75 37 8.6 47.5
11:00 1020 30.12 850 25.1 23.6 74.5 42 10 50
11:05 1020 30.12 850 25.1 23.9 75.1 37 8.5 47.3
11:10 1020 30.12 850 25.1 23.9 75 37 8.5 47.3
11:15 1020 30.12 850 25.1 23.7 74.7 35 7.6 45.6
11:20 1020 30.12 850 25.1 23.9 75 36 8 46.4
11:25 1021 30.15 850 25.1 24.6 76.3 35 8.5 47.3
11:30 1021 30.15 850 25.1 25 77 32 7.6 45.6
11:35 1021 30.15 850 25.1 24.9 76.9 34 8.3 46.9
11:40 1021 30.15 850 25.1 25.4 77.6 33 8.3 46.9
11:45 1021 30.15 850 25.1 25.7 78.3 31 7.8 46
11:50 1020 30.12 850 25.1 25.5 77.8 32 7.7 45.9
11:55 1020 30.12 850 25.1 25.9 78.7 28 6.4 43.6
12:00 1020 30.12 850 25.1 27 80.6 28 7.3 45.1
12:05 1020 30.12 850 25.1 27.4 81.3 27 7.3 45.1
12:10 1020 30.12 850 25.1 27.8 82.1 25 6.1 43
12:15 1020 30.12 850 25.1 28.1 82.5 24 5.8 42.5
12:20 1020 30.12 850 25.1 27.2 80.9 25 6 42.7
12:25 1020 30.12 850 25.1 26.8 80.2 26 6.1 42.9
12:30 1020 30.12 849 25.07 26.9 80.3 27 6.4 43.6
12:35 1020 30.12 849 25.07 27.9 82.3 24 5.6 42
12:40 1020 30.12 849 25.07 27.9 82.2 23 5.4 41.6
12:45 1020 30.12 849 25.07 27.8 82 23 5.1 41.1
12:50 1020 30.12 849 25.07 28.6 83.4 23 5.5 42
12:55 1020 30.12 849 25.07 28.5 83.2 23 5.7 42.2
13:00 1020 30.12 849 25.07 28.8 83.9 25 7 44.6
13:05 1020 30.12 849 25.07 29 84.3 25 7.2 45
13:10 1020 30.12 849 25.07 29.3 84.8 23 6.5 43.6
13:15 1020 30.12 849 25.07 29.2 84.6 21 4.8 40.6
13:20 1020 30.12 849 25.07 29.3 84.8 21 5 41
13:25 1020 30.12 849 25.07 29.5 85.1 20 4.6 40.3
13:30 1020 30.12 849 25.07 29.6 85.2 19 3.6 38.4
13:35 1020 30.12 849 25.07 29.1 84.3 19 3.5 38.3
13:40 1020 30.12 849 25.07 28.7 83.6 20 3.8 38.8
13:45 1020 30.12 849 25.07 28.8 83.8 19 3.4 38.2
13:50 1020 30.12 849 25.07 28.1 82.5 21 4.1 39.4
13:55 1020 30.12 849 25.07 28.6 83.4 20 3.9 39
14:00 1020 30.12 849 25.07 28.7 83.6 21 4.5 40.2
14:05 1020 30.12 849 25.07 28 82.4 21 4.2 39.6
14:10 1020 30.12 849 25.07 28 82.5 21 4.1 39.5
14:15 1020 30.12 849 25.07 28.6 83.5 22 5 41
14:20 1020 30.12 849 25.07 29.1 84.5 21 4.7 40.4
14:25 1020 30.12 849 25.07 28.7 83.7 22 5.3 41.6
14:30 1020 30.12 849 25.07 29.2 84.5 20 4.1 39.5
14:35 1020 30.12 849 25.07 29.9 85.8 21 5.9 42.6
14:40 1020 30.12 849 25.07 30.1 86.2 18 3.8 38.9
14:45 1020 30.12 849 25.07 30.2 86.3 18 4 39.1
14:50 1020 30.12 849 25.07 30 86.1 20 4.9 40.9
14:55 1019 30.09 849 25.07 29.5 85 20 4.6 40.2
15:00 1019 30.09 849 25.07 29.3 84.8 20 4.2 39.5
15:05 1019 30.09 849 25.07 29.5 85 21 5.2 41.3
15:10 1019 30.09 849 25.07 29.9 85.8 19 4.4 40
15:15 1019 30.09 849 25.07 30.8 87.4 20 5.5 41.9
15:20 1019 30.09 849 25.07 30.3 86.5 19 4.2 39.5
15:25 1019 30.09 849 25.07 31 87.9 17 3.7 38.6
15:30 1019 30.09 849 25.07 30.2 86.3 19 4.6 40.3
15:35 1019 30.09 849 25.07 30.5 86.9 19 4.6 40.4
15:40 1019 30.09 849 25.07 30.1 86.1 20 4.7 40.5
15:45 1019 30.09 849 25.07 29.4 85 20 4.3 39.8
15:50 1019 30.09 849 25.07 28.9 84 21 4.9 40.9
15:55 1019 30.09 849 25.07 28.4 83.2 23 5.8 42.4
16:00 1019 30.09 849 25.07 28.8 83.9 22 5.1 41.2
16:05 1019 30.09 849 25.07 29.4 84.9 20 4.4 40
16:10 1019 30.09 849 25.07 29.4 84.9 21 5.4 41.7
16:15 1019 30.09 849 25.07 28.9 84.1 20 4.4 39.9
16:20 1019 30.09 849 25.07 29 84.1 21 4.8 40.7
16:25 1019 30.09 849 25.07 28.8 83.8 22 5.1 41.1
16:30 1019 30.09 849 25.07 30.1 86.1 21 5.5 41.9
16:35 1019 30.09 848 25.04 30.8 87.5 17 3.5 38.4
16:40 1019 30.09 848 25.04 30.6 87 18 4 39.1
16:45 1019 30.09 848 25.04 30.4 86.8 18 3.7 38.6
16:50 1019 30.09 848 25.04 30.3 86.5 18 3.5 38.3
16:55 1019 30.09 848 25.04 30.3 86.5 16 2.2 36
17:00 1019 30.09 848 25.04 30.9 87.6 17 3.4 38.1
17:05 1019 30.09 848 25.04 31.2 88.1 19 5.1 41.1
17:10 1019 30.09 848 25.04 30.7 87.3 17 3.1 37.6
17:15 1019 30.09 848 25.04 31.1 88 15 1.7 35
17:20 1019 30.09 848 25.04 30.9 87.6 16 2.3 36.2
17:25 1019 30.09 848 25.04 30.8 87.4 16 2.5 36.4
17:30 1019 30.09 848 25.04 30.4 86.7 17 3.4 38
17:35 1019 30.09 848 25.04 30 86 18 3.7 38.6
17:40 1019 30.09 848 25.04 29.6 85.3 18 2.8 37.1
17:45 1019 30.09 848 25.04 29.6 85.2 17 2.6 36.7
17:50 1019 30.09 848 25.04 30.2 86.4 15 1.5 34.6
17:55 1019 30.09 848 25.04 30.8 87.4 16 2.2 36
18:00 1019 30.09 848 25.04 31.3 88.3 14 1.4 34.6
18:05 1019 30.09 848 25.04 31.5 88.7 15 2.1 35.8
18:10 1019 30.09 848 25.04 31.2 88.1 15 1.7 35.1
18:15 1019 30.09 848 25.04 30.4 86.8 17 3.4 38.1
18:20 1019 30.09 848 25.04 29.9 85.7 19 3.9 38.9
18:25 1019 30.09 848 25.04 29.7 85.5 15 0.9 33.6
18:30 1019 30.09 848 25.04 29.3 84.8 17 2 35.6
18:35 1019 30.09 848 25.04 29.1 84.3 16 0.9 33.6
18:40 1019 30.09 848 25.04 29.3 84.7 16 0.8 33.5
18:45 1019 30.09 848 25.04 29.2 84.5 17 2.2 35.9
18:50 1019 30.09 848 25.04 28.8 83.8 17 2 35.6
18:55 1019 30.09 848 25.04 28.8 83.8 17 1.8 35.3
19:00 1019 30.09 848 25.04 28.5 83.3 18 2.3 36.1
19:05 1019 30.09 848 25.04 28.4 83.1 18 2.2 36
19:10 1019 30.09 848 25.04 28.4 83.2 18 1.9 35.5
19:15 1018 30.06 848 25.04 28.4 83.2 18 1.8 35.2
19:20 1018 30.06 848 25.04 28.4 83.2 18 1.8 35.3
19:25 1018 30.06 848 25.04 28.3 83 22 4.7 40.5
19:30 1018 30.06 848 25.04 28.3 82.9 21 4.2 39.5
19:35 1018 30.06 848 25.04 28.1 82.6 22 4.6 40.3
19:40 1018 30.06 848 25.04 27.9 82.3 25 6.6 43.9
19:45 1019 30.09 848 25.04 27.7 81.9 25 6.2 43.1
19:50 1019 30.09 848 25.04 27.5 81.5 28 7.9 46.2
19:55 1019 30.09 848 25.04 27.3 81.1 27 6.8 44.2
20:00 1019 30.09 848 25.04 26.9 80.3 30 8.2 46.8
20:05 1019 30.09 848 25.04 26.3 79.4 30 7.5 45.5
20:10 1019 30.09 848 25.04 25.5 78 31 7.5 45.5
20:15 1019 30.09 848 25.04 25 77.1 32 7.4 45.3
20:20 1019 30.09 848 25.04 24.7 76.4 31 6.8 44.3
20:25 1019 30.09 848 25.04 24.3 75.7 34 7.6 45.7
20:30 1019 30.09 848 25.04 23.8 74.8 34 7.3 45.1
20:35 1019 30.09 848 25.04 23.5 74.4 36 8 46.4
20:40 1019 30.09 848 25.04 23.2 73.8 37 7.9 46.3
20:45 1019 30.09 848 25.04 22.9 73.3 39 8.5 47.3
20:50 1019 30.09 848 25.04 22.5 72.5 43 9.6 49.3
20:55 1019 30.09 848 25.04 22.1 71.8 42 8.6 47.6
21:00 1019 30.09 848 25.04 21.7 71.1 43 8.7 47.6
21:05 1019 30.09 848 25.04 21.4 70.6 44 8.9 48
21:10 1019 30.09 849 25.07 21.5 70.7 41 8 46.4
21:15 1020 30.12 849 25.07 21.3 70.3 40 7.2 44.9
21:20 1020 30.12 849 25.07 21.8 71.2 40 7.6 45.7
21:25 1020 30.12 849 25.07 22.4 72.4 39 8 46.5
21:30 1020 30.12 849 25.07 22.7 72.9 40 8.8 47.8
21:35 1020 30.12 849 25.07 22.6 72.7 41 8.9 48.1
21:40 1020 30.12 849 25.07 22.5 72.4 42 9 48.2
21:45 1020 30.12 849 25.07 22.4 72.2 42 8.9 48
21:50 1020 30.12 849 25.07 22.3 72.1 41 8.7 47.6
21:55 1020 30.12 849 25.07 22.3 72.2 41 8.5 47.4
22:00 1020 30.12 849 25.07 22.4 72.4 41 8.7 47.7
22:05 1020 30.12 850 25.1 22.5 72.4 41 8.7 47.7
22:10 1020 30.12 850 25.1 22.3 72.1 42 8.8 47.9
22:15 1020 30.12 850 25.1 22.2 71.9 42 8.8 47.8
22:20 1021 30.15 850 25.1 22 71.6 43 8.9 48.1
22:25 1020 30.12 850 25.1 21.9 71.3 43 8.9 48
22:30 1021 30.15 850 25.1 21.8 71.2 43 8.9 48.1
22:35 1021 30.15 850 25.1 21.7 71 43 8.8 47.9
22:40 1021 30.15 850 25.1 21.6 70.9 44 8.9 48.1
22:45 1021 30.15 850 25.1 21.5 70.7 44 9.1 48.3
22:50 1021 30.15 850 25.1 21.4 70.6 45 9 48.2
22:55 1021 30.15 850 25.1 21.3 70.4 45 9 48.2
23:00 1021 30.15 850 25.1 21.2 70.2 45 9 48.2
23:05 1021 30.15 850 25.1 21.1 69.9 46 9.1 48.3
23:10 1021 30.15 850 25.1 21 69.7 45 8.9 48
23:15 1021 30.15 850 25.1 21 69.7 46 9.1 48.4
23:20 1021 30.15 850 25.1 20.9 69.5 46 9 48.3
23:25 1021 30.15 850 25.1 20.8 69.4 46 9 48.2
23:30 1021 30.15 850 25.1 20.7 69.2 47 9 48.3
23:35 1021 30.15 850 25.1 20.6 69 47 9.1 48.4
23:40 1021 30.15 851 25.13 20.4 68.8 48 9.1 48.4
23:45 1021 30.15 851 25.13 20.3 68.5 48 9 48.3
23:50 1022 30.18 851 25.13 20.1 68.2 49 9.2 48.5
23:55 1022 30.18 851 25.13 19.9 67.7 49 9.1 48.4
24:00 1022 30.18 851 25.13 19.8 67.7 49 8.9 48.1